SVVA

Details ICAO SVVA (VLN)
Name ARTURO MICHELENA INTL
Region Venezuela
Timezone America/Caracas (UTC-4.0)
Plans Departing 115
Arriving 80
Stats Elevation 1,417 ft / 432 m (AMSL)
Location 10.149733° -67.928400°
Runways 1
Magnetic Variation 11.786° W
Sunrise 2018-05-28 10:10:39 UTC / 2018-05-28 06:10:39 Local
Sunset 2018-05-28 22:50:16 UTC / 2018-05-28 18:50:16 Local
Advertisement - Login to hide

Runways

ID Width Length Bearing (true) Bearing (mag) Surface Threshold Offset Overrun Length
10 164 ft / 50 m 9,806 ft / 2,989 m 92.84° 104.63° Asphalt 0 ft / 0 m 0 ft / 0 m
28 164 ft / 50 m 9,806 ft / 2,989 m 272.85° 284.64° Asphalt 0 ft / 0 m 250 ft / 76 m

Map

Weather


0- 5 10 15 20 25 30 35+ Temperature / ° C

Clouds and Precipitation
Forecast for 2018-05-28 00:00 UTC. Updated 6 hours ago

Ground ~20,000 ft ~40,000 ft Winds

METAR

Not found

TAF

TAF TAF SVVA 271600Z 2718/2818 18005KT 9999 SCT016 SCT100 BECMG 2720/2823Z 11004KT 9000 -TSDZ FEW013CB BKN016 PROB40 TEMPO 0201/0206 25004KT 9999 SCT016 SCT100 TX33/20Z TN21/10Z

Frequencies

Recorded 127.80 MHz ATIS
Tower 118.90 MHz VALENCIA TWR
Ground 121.90 MHz GND
Warning: Do not use this data for real-world aviation or navigation. No guarantee of current accuracy is given.